Time;durP1;ratioP1;P1;durP2;ratioP2;P2;SDS_P1;SDS_P2;PMS_P1;PMS_P2;Temp;Humidity;BMP_temperature;BMP_pressure;BME280_temperature;BME280_humidity;BME280_pressure;Samples;Min_cycle;Max_cycle;Signal;HPM_P1;HPM_P2
2022/01/28 00:02:08;;;;;;;77.70;44.95;;;;;;;6.13;99.17;99816.63;5099846;28;20040;-94
2022/01/28 00:04:37;;;;;;;93.22;49.08;;;;;;;6.07;99.00;99806.91;5100236;28;20044;-93
2022/01/28 00:07:05;;;;;;;93.47;48.95;;;;;;;6.11;99.33;99819.25;5099439;28;20068;-94
2022/01/28 00:09:31;;;;;;;86.78;47.20;;;;;;;6.09;99.26;99821.00;5099764;28;20076;-93
2022/01/28 00:11:58;;;;;;;91.57;47.35;;;;;;;6.01;99.56;99800.69;5099514;28;20048;-94
2022/01/28 00:14:32;;;;;;;80.93;45.63;;;;;;;6.02;99.46;99807.75;5099826;28;20091;-94
2022/01/28 00:40:47;;;;;;;90.88;48.65;;;;;;;5.74;100.00;99776.66;5120947;27;20381;-94
2022/01/28 00:43:13;;;;;;;81.65;46.15;;;;;;;5.72;100.00;99781.06;5120346;28;20043;-94
2022/01/28 00:45:39;;;;;;;86.57;47.22;;;;;;;5.72;100.00;99774.91;5120633;28;20040;-93
2022/01/28 00:48:05;;;;;;;87.25;49.72;;;;;;;5.73;100.00;99771.41;5120101;28;20099;-96
2022/01/28 00:50:31;;;;;;;81.53;47.78;;;;;;;5.74;100.00;99773.16;5120163;28;20040;-94
2022/01/28 00:52:57;;;;;;;83.43;46.97;;;;;;;5.74;100.00;99770.53;5119589;28;20564;-94
2022/01/28 00:55:23;;;;;;;83.05;46.63;;;;;;;5.71;100.00;99770.50;5120352;28;20047;-96
2022/01/28 00:57:53;;;;;;;88.22;47.67;;;;;;;5.70;100.00;99758.16;5119730;28;20066;-96
2022/01/28 01:00:19;;;;;;;83.75;47.88;;;;;;;5.68;100.00;99760.81;5120686;28;20040;-95
2022/01/28 01:02:45;;;;;;;88.00;47.60;;;;;;;5.63;100.00;99770.41;5120107;28;20047;-94
2022/01/28 01:05:12;;;;;;;83.28;47.53;;;;;;;5.83;100.00;99806.66;5120200;28;20046;-92
2022/01/28 01:07:38;;;;;;;83.80;44.33;;;;;;;5.83;100.00;99790.81;5120331;28;20051;-95
2022/01/28 01:10:06;;;;;;;78.60;43.20;;;;;;;5.71;100.00;99766.09;5120379;28;20044;-95
2022/01/28 01:12:36;;;;;;;83.30;45.15;;;;;;;5.72;100.00;99765.22;5119856;28;20047;-94
2022/01/28 01:15:04;;;;;;;;;;;;;;;5.94;100.00;99782.19;5120479;28;20048;-96
2022/01/28 01:17:35;;;;;;;76.78;42.08;;;;;;;5.70;100.00;99743.25;5119858;28;19947;-96
2022/01/28 01:20:32;;;;;;;74.65;42.00;;;;;;;5.75;100.00;99745.91;5119821;28;20060;-95
2022/01/28 01:28:47;;;;;;;74.50;41.20;;;;;;;5.81;99.67;99760.88;5100110;27;20389;-93
2022/01/28 01:31:18;;;;;;;75.32;41.90;;;;;;;5.75;100.00;99756.47;5099690;28;20478;-94
2022/01/28 01:33:52;;;;;;;74.10;40.30;;;;;;;5.73;100.00;99751.16;5100307;28;20047;-94
2022/01/28 01:36:25;;;;;;;76.78;41.25;;;;;;;5.73;100.00;99739.72;5099511;28;20075;-94
2022/01/28 01:38:51;;;;;;;72.47;41.05;;;;;;;5.84;99.92;99763.56;5099495;28;20040;-94
2022/01/28 01:41:29;;;;;;;67.88;39.70;;;;;;;5.83;99.99;99765.31;5099909;28;20037;-95
2022/01/28 02:03:36;;;;;;;56.65;32.17;;;;;;;5.89;97.96;99711.69;5120097;27;20869;-94
2022/01/28 02:06:02;;;;;;;58.17;33.60;;;;;;;5.92;97.80;99703.78;5120427;28;20048;-95
2022/01/28 02:08:32;;;;;;;61.30;34.10;;;;;;;5.95;97.51;99706.50;5119853;28;20040;-95
2022/01/28 02:10:59;;;;;;;58.55;32.53;;;;;;;6.05;97.70;99728.53;5120335;28;20069;-95
2022/01/28 02:13:26;;;;;;;58.33;33.65;;;;;;;5.94;97.67;99696.75;5119585;28;20044;-94
2022/01/28 02:15:52;;;;;;;63.08;33.22;;;;;;;5.91;97.70;99700.25;5119266;28;20128;-94
2022/01/28 02:18:18;;;;;;;59.97;34.03;;;;;;;5.88;97.79;99700.25;5119464;28;20131;-95
2022/01/28 02:20:50;;;;;;;61.30;33.47;;;;;;;5.89;97.70;99702.00;5119570;28;20446;-94
2022/01/28 02:23:16;;;;;;;60.30;34.25;;;;;;;5.83;98.22;99699.31;5119766;28;20061;-94
2022/01/28 02:25:44;;;;;;;59.13;35.45;;;;;;;5.91;98.31;99710.81;5120294;28;20106;-94
2022/01/28 02:28:13;;;;;;;63.63;34.58;;;;;;;5.79;98.10;99686.09;5119896;28;20040;-94
2022/01/28 02:30:39;;;;;;;63.53;34.80;;;;;;;5.77;98.55;99688.75;5119512;28;20115;-96
2022/01/28 02:33:12;;;;;;;64.07;34.53;;;;;;;5.91;98.73;99709.94;5118965;28;20516;-94
2022/01/28 02:35:43;;;;;;;62.33;34.42;;;;;;;5.79;99.34;99700.19;5120414;28;20048;-94
2022/01/28 02:38:11;;;;;;;59.15;33.35;;;;;;;5.75;99.36;99699.28;5118526;28;20103;-94
2022/01/28 02:40:39;;;;;;;54.30;31.02;;;;;;;5.86;99.48;99711.69;5119025;28;20040;-94
2022/01/28 02:46:13;;;;;;;51.60;30.20;;;;;;;5.81;98.79;99698.41;5100667;27;20381;-94
2022/01/28 02:48:49;;;;;;;56.33;30.27;;;;;;;5.75;98.53;99682.56;5099471;28;20052;-94
2022/01/28 02:51:18;;;;;;;51.78;29.25;;;;;;;5.83;98.54;99687.88;5100599;28;20556;-94
2022/01/28 02:53:50;;;;;;;51.30;28.10;;;;;;;5.80;98.47;99679.97;5100371;28;20044;-94
2022/01/28 02:56:20;;;;;;;46.35;26.77;;;;;;;5.82;98.26;99683.50;5099993;28;20045;-94
2022/01/28 02:58:51;;;;;;;47.90;27.92;;;;;;;5.86;98.07;99680.88;5103758;28;20040;-95
2022/01/28 03:01:21;;;;;;;51.13;28.55;;;;;;;5.85;98.15;99694.94;5099848;28;20112;-93
2022/01/28 03:03:49;;;;;;;49.65;26.90;;;;;;;5.93;98.11;99706.44;5099837;28;20102;-93
2022/01/28 03:06:17;;;;;;;43.80;25.90;;;;;;;5.85;98.45;99691.41;5099645;28;20359;-96
2022/01/28 03:09:14;;;;;;;44.85;26.67;;;;;;;5.97;98.52;99696.81;5099031;28;20052;-96
2022/01/28 03:12:14;;;;;;;47.33;27.20;;;;;;;5.86;98.71;99680.88;5099266;28;20070;-95
2022/01/28 03:15:05;;;;;;;;;;;;;;;5.97;98.96;99700.34;5099337;28;20052;-95
2022/01/28 03:18:07;;;;;;;50.72;26.80;;;;;;;5.76;99.02;99668.50;5097947;28;19916;-94
2022/01/28 03:23:41;;;;;;;63.58;33.92;;;;;;;5.62;100.00;99691.28;5174993;27;20371;-95
2022/01/28 03:26:28;;;;;;;63.33;33.95;;;;;;;5.59;100.00;99692.09;5139833;28;20048;-95
2022/01/28 03:29:14;;;;;;;55.17;31.52;;;;;;;5.79;100.00;99713.41;5138870;28;20126;-94
2022/01/28 03:32:01;;;;;;;51.75;29.02;;;;;;;5.64;100.00;99700.97;5139787;28;20047;-95
2022/01/28 03:34:47;;;;;;;46.22;25.63;;;;;;;5.67;100.00;99711.53;5139797;28;20400;-95
2022/01/28 03:37:33;;;;;;;49.17;26.23;;;;;;;5.67;99.84;99708.00;5138508;28;20051;-94
2022/01/28 03:40:20;;;;;;;41.03;23.33;;;;;;;5.75;98.15;99704.56;5138551;28;20107;-96
2022/01/28 03:43:07;;;;;;;44.25;24.13;;;;;;;5.81;97.19;99700.19;5138728;28;20063;-96
2022/01/28 03:45:53;;;;;;;42.88;24.35;;;;;;;5.85;97.27;99691.41;5138449;28;20047;-95
2022/01/28 03:48:39;;;;;;;42.28;23.08;;;;;;;5.89;97.23;99696.72;5139679;28;20047;-96
2022/01/28 03:51:26;;;;;;;46.28;23.92;;;;;;;5.99;97.21;99705.63;5139089;28;20046;-95
2022/01/28 03:54:12;;;;;;;43.20;24.90;;;;;;;6.07;96.98;99718.88;5137724;28;20043;-95
2022/01/28 03:56:59;;;;;;;38.47;22.48;;;;;;;6.01;96.65;99710.91;5138542;28;20043;-95
2022/01/28 03:59:46;;;;;;;38.58;21.45;;;;;;;6.03;97.52;99725.91;5137932;28;20051;-95
2022/01/28 04:02:38;;;;;;;37.55;21.52;;;;;;;6.05;97.78;99732.09;5137311;28;20036;-96
2022/01/28 04:11:33;;;;;;;53.05;28.25;;;;;;;5.82;98.65;99683.50;5120746;27;20384;-94
2022/01/28 04:14:37;;;;;;;53.40;31.15;;;;;;;5.74;98.71;99670.22;5138603;28;20197;-95
2022/01/28 04:17:24;;;;;;;58.28;31.58;;;;;;;5.72;99.31;99657.00;5139083;28;20068;-94
2022/01/28 04:20:14;;;;;;;55.15;32.20;;;;;;;5.76;99.42;99676.41;5140738;28;20035;-94
2022/01/28 04:23:02;;;;;;;53.78;30.65;;;;;;;5.72;99.09;99654.38;5139431;28;20050;-94
2022/01/28 04:25:48;;;;;;;56.60;32.05;;;;;;;5.68;98.98;99675.47;5138417;28;20044;-94
2022/01/28 04:28:37;;;;;;;55.50;32.13;;;;;;;5.79;99.12;99702.84;5139119;28;20048;-94
2022/01/28 04:31:23;;;;;;;53.75;29.20;;;;;;;5.68;99.33;99672.81;5137554;28;20043;-95
2022/01/28 04:34:09;;;;;;;47.75;27.83;;;;;;;5.60;99.22;99656.94;5137494;28;20050;-95
2022/01/28 04:45:54;;;;;;;51.03;27.73;;;;;;;5.49;98.98;99680.63;5181962;27;20868;-96
2022/01/28 04:48:53;;;;;;;46.72;26.02;;;;;;;5.57;99.22;99696.50;5181020;27;20050;-95
2022/01/28 05:10:04;;;;;;;45.38;24.58;;;;;;;5.48;98.83;99668.28;5161751;27;20382;-94
2022/01/28 05:27:21;;;;;;;41.28;24.35;;;;;;;5.46;100.00;99654.19;5162271;27;20412;-96
2022/01/28 05:30:08;;;;;;;41.30;23.60;;;;;;;5.48;100.00;99657.72;5159684;27;20396;-96
2022/01/28 05:32:54;;;;;;;44.75;22.98;;;;;;;5.54;100.00;99651.63;5159519;27;20043;-94
2022/01/28 05:35:40;;;;;;;39.35;22.08;;;;;;;5.69;99.22;99642.94;5158746;27;20043;-94
2022/01/28 05:38:27;;;;;;;44.67;24.27;;;;;;;5.67;98.76;99639.41;5159464;27;20474;-94
2022/01/28 05:41:13;;;;;;;42.42;24.08;;;;;;;5.78;99.55;99661.47;5158831;27;20050;-94
2022/01/28 05:44:02;;;;;;;44.78;24.50;;;;;;;5.66;99.41;99656.09;5158530;27;20043;-95
2022/01/28 05:46:49;;;;;;;39.50;22.47;;;;;;;5.61;99.25;99636.72;5159621;27;20035;-93
2022/01/28 05:49:35;;;;;;;41.45;22.80;;;;;;;5.66;99.77;99669.28;5158629;27;20289;-93
2022/01/28 05:52:22;;;;;;;38.05;21.95;;;;;;;5.68;99.17;99649.06;5161047;27;20063;-94
2022/01/28 05:55:10;;;;;;;39.63;22.67;;;;;;;5.64;99.02;99642.00;5163314;27;20050;-93
2022/01/28 05:57:57;;;;;;;37.05;21.08;;;;;;;5.65;98.55;99636.75;5163788;27;20042;-93
2022/01/28 06:00:44;;;;;;;38.40;21.95;;;;;;;5.77;99.04;99665.00;5163318;27;20042;-94
2022/01/28 06:03:31;;;;;;;34.97;20.52;;;;;;;5.65;99.18;99643.78;5162909;27;20035;-93
2022/01/28 06:06:21;;;;;;;38.25;21.38;;;;;;;5.58;99.42;99637.59;5162313;27;20043;-93
2022/01/28 06:09:07;;;;;;;35.05;20.48;;;;;;;5.64;99.44;99656.09;5159907;27;20117;-94
2022/01/28 06:11:53;;;;;;;34.13;19.92;;;;;;;5.60;99.50;99635.84;5159940;27;20043;-94
2022/01/28 06:14:39;;;;;;;34.83;19.15;;;;;;;5.59;99.52;99644.63;5162846;27;20050;-93
2022/01/28 06:17:32;;;;;;;30.27;16.30;;;;;;;5.60;99.56;99650.81;5158286;27;20035;-96
2022/01/28 06:20:19;;;;;;;31.33;17.50;;;;;;;5.65;99.36;99647.31;5152070;27;20038;-94
2022/01/28 06:23:05;;;;;;;32.65;18.30;;;;;;;5.79;98.57;99667.63;5152736;27;20066;-95
2022/01/28 06:25:51;;;;;;;36.28;21.67;;;;;;;5.69;99.31;99640.31;5154017;27;20080;-94
2022/01/28 06:28:38;;;;;;;43.17;22.10;;;;;;;5.75;99.24;99662.34;5155092;27;20043;-94
2022/01/28 06:31:24;;;;;;;39.83;22.90;;;;;;;5.67;99.85;99658.75;5158558;27;20518;-94
2022/01/28 06:34:11;;;;;;;41.60;22.63;;;;;;;5.61;99.83;99660.47;5154938;27;20047;-94
2022/01/28 06:36:57;;;;;;;35.90;20.33;;;;;;;5.67;99.28;99668.44;5147149;27;20051;-94
2022/01/28 06:39:44;;;;;;;34.22;19.33;;;;;;;5.64;99.14;99660.47;5142011;27;20043;-94
2022/01/28 06:42:30;;;;;;;32.53;18.17;;;;;;;5.71;98.76;99688.69;5121689;28;20168;-94
2022/01/28 06:45:06;;;;;;;30.23;18.75;;;;;;;5.73;99.29;99682.56;5121781;28;20047;-93
2022/01/28 06:47:33;;;;;;;31.45;18.20;;;;;;;5.63;99.09;99656.09;5122239;28;20044;-94
2022/01/28 06:50:02;;;;;;;29.55;17.10;;;;;;;5.63;99.56;99664.00;5122453;28;20055;-94
2022/01/28 06:52:28;;;;;;;;;;;;;;;5.83;99.21;99704.59;5124632;28;20048;-94
2022/01/28 06:54:54;;;;;;;30.02;16.70;;;;;;;5.79;99.07;99694.91;5121851;28;19945;-94
2022/01/28 06:57:19;;;;;;;31.25;16.83;;;;;;;5.87;98.65;99687.91;5121173;28;20051;-95
2022/01/28 06:59:45;;;;;;;30.52;17.48;;;;;;;5.77;98.29;99659.72;5120388;28;20039;-96
2022/01/28 07:02:11;;;;;;;27.00;16.42;;;;;;;5.89;98.47;99680.88;5121086;28;20044;-96
2022/01/28 07:04:37;;;;;;;31.30;17.10;;;;;;;5.86;98.72;99672.09;5121396;28;20039;-95
2022/01/28 07:07:06;;;;;;;30.05;17.45;;;;;;;5.89;98.41;99665.06;5121140;28;20058;-92
2022/01/28 07:09:34;;;;;;;29.58;17.50;;;;;;;5.88;98.05;99652.75;5120746;28;20044;-95
2022/01/28 07:12:00;;;;;;;34.47;18.75;;;;;;;6.06;98.36;99674.88;5120154;28;20120;-96
2022/01/28 07:14:25;;;;;;;36.25;20.02;;;;;;;6.02;98.02;99663.41;5119046;28;20481;-94
2022/01/28 07:16:56;;;;;;;34.35;19.25;;;;;;;6.11;98.21;99681.94;5120153;28;20055;-94
2022/01/28 07:19:22;;;;;;;29.80;16.52;;;;;;;6.20;98.35;99706.63;5120507;28;20048;-96
2022/01/28 07:21:48;;;;;;;32.85;17.40;;;;;;;6.14;98.04;99696.94;5120769;28;20138;-94
2022/01/28 07:24:16;;;;;;;30.67;16.85;;;;;;;6.15;97.10;99683.72;5118617;28;20035;-96
2022/01/28 07:26:42;;;;;;;31.73;17.83;;;;;;;6.32;96.59;99683.81;5118666;28;20130;-96
2022/01/28 07:29:11;;;;;;;34.72;19.83;;;;;;;6.38;95.62;99680.31;5118686;28;20109;-95
2022/01/28 07:31:38;;;;;;;29.00;16.47;;;;;;;6.55;96.87;99691.84;5119749;28;20075;-95
2022/01/28 07:34:06;;;;;;;31.10;16.40;;;;;;;6.53;96.68;99674.22;5117930;28;20044;-95
2022/01/28 07:36:32;;;;;;;27.27;16.45;;;;;;;6.44;96.75;99653.03;5119083;28;20043;-95
2022/01/28 07:38:58;;;;;;;36.55;17.02;;;;;;;6.41;97.39;99666.25;5119956;28;20101;-95
2022/01/28 07:41:26;;;;;;;32.10;17.85;;;;;;;6.58;95.55;99698.91;5119964;28;20054;-96
2022/01/28 07:43:55;;;;;;;30.13;18.60;;;;;;;6.50;95.62;99682.13;5120122;28;20062;-95
2022/01/28 07:46:21;;;;;;;40.17;21.92;;;;;;;6.44;96.07;99674.16;5118863;28;20048;-95
2022/01/28 07:48:50;;;;;;;29.25;16.75;;;;;;;6.47;96.59;99674.19;5117987;28;20050;-94
2022/01/28 07:51:17;;;;;;;26.98;16.08;;;;;;;6.57;97.09;99694.47;5119781;28;20096;-96
2022/01/28 07:53:43;;;;;;;30.02;16.38;;;;;;;6.55;96.98;99685.69;5119823;28;20084;-95
2022/01/28 07:56:11;;;;;;;27.05;15.30;;;;;;;6.51;96.67;99668.06;5120179;28;20092;-95
2022/01/28 07:58:38;;;;;;;25.92;15.23;;;;;;;6.58;96.02;99657.50;5119844;28;20040;-96
2022/01/28 08:01:08;;;;;;;29.70;15.68;;;;;;;6.67;96.32;99663.69;5121419;28;20045;-95
2022/01/28 08:03:34;;;;;;;22.48;14.20;;;;;;;6.73;95.05;99656.66;5120251;28;20057;-96
2022/01/28 08:06:02;;;;;;;25.70;15.30;;;;;;;6.83;93.15;99661.97;5119265;28;20046;-95
2022/01/28 08:08:28;;;;;;;32.10;16.80;;;;;;;6.91;92.64;99657.56;5118703;28;20040;-94
2022/01/28 08:10:54;;;;;;;25.75;14.88;;;;;;;7.05;91.13;99663.78;5118354;28;20052;-95
2022/01/28 08:13:20;;;;;;;24.52;13.77;;;;;;;7.15;89.04;99669.94;5118873;28;20054;-95
2022/01/28 08:15:48;;;;;;;25.23;14.63;;;;;;;7.20;84.15;99662.94;5120270;28;20044;-94
2022/01/28 08:18:14;;;;;;;22.08;12.98;;;;;;;7.41;83.15;99688.50;5118060;28;20074;-94
2022/01/28 08:20:41;;;;;;;22.58;13.38;;;;;;;7.54;82.19;99692.91;5118661;28;20035;-95
2022/01/28 08:23:07;;;;;;;23.80;14.18;;;;;;;7.47;82.18;99664.69;5117898;28;20040;-95
2022/01/28 08:25:35;;;;;;;25.83;16.23;;;;;;;7.58;81.89;99670.84;5118363;28;20047;-94
2022/01/28 08:28:02;;;;;;;31.08;19.33;;;;;;;7.74;82.01;99689.34;5117455;28;20063;-94
2022/01/28 08:30:30;;;;;;;28.75;17.13;;;;;;;7.86;82.28;99697.31;5117765;28;20044;-95
2022/01/28 08:32:57;;;;;;;31.90;20.05;;;;;;;7.88;82.10;99690.25;5118355;28;20062;-94
2022/01/28 08:35:31;;;;;;;34.33;18.85;;;;;;;7.91;83.61;99684.94;5116892;28;20135;-93
2022/01/28 08:37:59;;;;;;;50.85;28.20;;;;;;;7.95;84.84;99680.50;5116528;28;20092;-93
2022/01/28 08:40:26;;;;;;;51.67;29.35;;;;;;;7.98;85.45;99678.75;5117079;28;20036;-95
2022/01/28 08:42:52;;;;;;;58.83;32.75;;;;;;;8.09;85.70;99684.03;5117838;28;20501;-94
2022/01/28 08:45:18;;;;;;;45.50;29.65;;;;;;;8.07;85.31;99677.84;5117813;28;20047;-93
2022/01/28 08:47:44;;;;;;;47.75;28.60;;;;;;;8.18;84.84;99688.44;5118328;28;20048;-95
2022/01/28 08:50:11;;;;;;;46.22;26.88;;;;;;;8.19;84.11;99698.13;5119458;28;20121;-95
2022/01/28 08:52:37;;;;;;;47.47;25.85;;;;;;;8.14;83.21;99686.66;5120592;28;20040;-95
2022/01/28 08:55:06;;;;;;;39.03;22.88;;;;;;;8.19;82.11;99688.41;5120490;28;20058;-95
2022/01/28 08:57:32;;;;;;;34.92;19.38;;;;;;;8.22;80.22;99693.72;5135251;27;20054;-93
2022/01/28 08:59:58;;;;;;;31.75;18.90;;;;;;;8.16;79.49;99698.13;5140516;27;20106;-95
2022/01/28 09:02:24;;;;;;;28.25;18.13;;;;;;;8.30;79.20;99698.97;5142591;27;20091;-95
2022/01/28 09:04:53;;;;;;;33.58;19.95;;;;;;;8.51;78.05;99691.88;5140513;27;20040;-94
2022/01/28 09:07:20;;;;;;;27.10;16.65;;;;;;;8.71;78.03;99708.56;5142055;27;20139;-94
2022/01/28 09:09:50;;;;;;;24.45;14.15;;;;;;;8.67;76.52;99692.69;5141700;27;20077;-94
2022/01/28 09:12:31;;;;;;;29.48;20.15;;;;;;;8.52;76.40;99696.28;5141072;27;20396;-94
2022/01/28 09:14:57;;;;;;;30.52;18.95;;;;;;;8.58;76.68;99685.66;5140369;27;20047;-93
2022/01/28 09:17:23;;;;;;;26.10;16.33;;;;;;;8.50;76.97;99685.69;5140597;27;20049;-96
2022/01/28 09:19:49;;;;;;;27.88;17.88;;;;;;;8.63;77.29;99710.38;5143421;27;20063;-95
2022/01/28 09:22:15;;;;;;;31.63;20.23;;;;;;;8.63;76.45;99699.75;5141309;27;20054;-94
2022/01/28 09:24:43;;;;;;;37.67;23.30;;;;;;;8.97;75.98;99726.13;5138453;28;20051;-94
2022/01/28 09:27:09;;;;;;;29.95;18.35;;;;;;;9.06;75.05;99734.03;5135028;28;20043;-91
2022/01/28 09:29:35;;;;;;;32.38;19.65;;;;;;;9.18;75.06;99725.16;5137423;28;20050;-91
2022/01/28 09:32:09;;;;;;;30.75;17.02;;;;;;;9.36;73.78;99700.25;5130045;28;20047;-92
2022/01/28 09:34:35;;;;;;;29.98;18.13;;;;;;;9.65;72.72;99695.59;5130936;28;20042;-92
2022/01/28 09:37:01;;;;;;;33.20;17.45;;;;;;;9.89;72.07;99698.94;5136764;28;20043;-93
2022/01/28 09:39:29;;;;;;;36.05;20.98;;;;;;;10.02;71.58;99697.91;5133973;28;20027;-91
2022/01/28 09:42:02;;;;;;;30.77;20.95;;;;;;;10.15;71.46;99709.31;5137026;28;20046;-93
2022/01/28 09:44:29;;;;;;;24.27;14.02;;;;;;;10.02;71.97;99700.56;5135869;28;20097;-93
2022/01/28 09:46:57;;;;;;;30.63;16.38;;;;;;;10.11;71.95;99704.91;5136604;28;20099;-93
2022/01/28 09:49:23;;;;;;;24.38;15.27;;;;;;;10.08;70.28;99705.81;5135013;28;20122;-91
2022/01/28 09:51:52;;;;;;;24.00;13.88;;;;;;;10.00;72.33;99725.41;5129247;28;20059;-93
2022/01/28 09:54:18;;;;;;;26.67;15.45;;;;;;;9.95;72.27;99704.16;5135592;28;20043;-93
2022/01/28 09:56:44;;;;;;;29.00;18.23;;;;;;;10.01;72.96;99705.88;5135654;28;20373;-95
2022/01/28 09:59:12;;;;;;;26.23;15.98;;;;;;;9.95;72.81;99692.66;5137353;28;20130;-93
2022/01/28 10:01:47;;;;;;;22.70;14.77;;;;;;;10.07;73.17;99721.78;5134709;28;20039;-93
2022/01/28 10:04:15;;;;;;;24.00;15.13;;;;;;;10.02;73.48;99712.97;5134821;27;20039;-94
2022/01/28 10:06:41;;;;;;;25.67;15.65;;;;;;;9.96;73.62;99708.59;5135122;28;20032;-93
2022/01/28 10:09:07;;;;;;;33.15;17.88;;;;;;;9.96;73.76;99705.94;5135020;28;20496;-93
2022/01/28 10:11:33;;;;;;;28.83;16.23;;;;;;;9.86;73.92;99686.53;5135417;27;20031;-94
2022/01/28 10:14:10;;;;;;;25.88;15.55;;;;;;;9.84;74.57;99706.91;5141150;27;20046;-93
2022/01/28 10:16:37;;;;;;;30.38;15.90;;;;;;;9.73;74.64;99700.81;5131439;27;20050;-94
2022/01/28 10:19:05;;;;;;;26.10;14.95;;;;;;;9.84;74.42;99712.22;5135244;27;20048;-91
2022/01/28 10:21:33;;;;;;;27.20;18.30;;;;;;;9.70;74.62;99692.03;5135158;27;20078;-93
2022/01/28 10:24:05;;;;;;;26.83;18.25;;;;;;;9.58;74.48;99693.84;5139948;27;20054;-93
2022/01/28 10:26:35;;;;;;;24.55;15.93;;;;;;;9.51;74.08;99686.84;5135508;27;20138;-93
2022/01/28 10:29:04;;;;;;;22.90;13.15;;;;;;;9.56;74.63;99684.16;5119907;28;20036;-93
2022/01/28 10:31:40;;;;;;;22.15;13.05;;;;;;;9.60;74.20;99694.72;5137352;27;20553;-94
2022/01/28 10:34:11;;;;;;;23.58;13.95;;;;;;;9.43;74.25;99659.47;5140032;27;20035;-93
2022/01/28 10:36:38;;;;;;;20.65;14.38;;;;;;;9.59;73.84;99669.09;5140443;27;20046;-94
2022/01/28 10:39:03;;;;;;;22.98;15.32;;;;;;;9.77;74.25;99654.75;5132570;27;20054;-93
2022/01/28 10:41:29;;;;;;;22.83;13.63;;;;;;;9.93;73.21;99676.75;5135808;27;20043;-92
2022/01/28 10:43:58;;;;;;;23.85;13.27;;;;;;;9.94;72.65;99659.03;5140180;27;20076;-95
2022/01/28 10:46:34;;;;;;;28.70;16.83;;;;;;;10.10;72.94;99673.03;5139714;27;20076;-92
2022/01/28 10:49:05;;;;;;;26.88;16.65;;;;;;;10.17;71.95;99670.28;5140135;27;20039;-93
2022/01/28 10:51:40;;;;;;;30.83;22.70;;;;;;;10.47;71.00;99657.56;5137592;27;20039;-93
2022/01/28 10:54:10;;;;;;;27.92;19.90;;;;;;;10.76;70.20;99670.50;5133332;27;20040;-93
2022/01/28 10:56:48;;;;;;;24.38;13.48;;;;;;;10.71;69.07;99659.00;5136506;27;20054;-94
2022/01/28 10:59:16;;;;;;;20.65;14.23;;;;;;;10.72;68.39;99639.50;5132233;27;20043;-92
2022/01/28 11:01:52;;;;;;;20.93;11.40;;;;;;;10.89;67.72;99644.59;5132195;27;20043;-94
2022/01/28 11:04:20;;;;;;;20.77;11.30;;;;;;;10.93;67.30;99650.75;5138605;27;20039;-92
2022/01/28 11:06:47;;;;;;;21.70;12.10;;;;;;;11.11;67.09;99661.13;5125256;27;20035;-94
2022/01/28 11:09:20;;;;;;;20.40;10.50;;;;;;;11.14;67.44;99646.88;5136469;27;20130;-93
2022/01/28 11:11:47;;;;;;;17.27;10.70;;;;;;;11.18;66.81;99643.28;5137120;27;20047;-92
2022/01/28 11:14:15;;;;;;;17.83;11.50;;;;;;;11.22;66.17;99634.34;5135062;27;20063;-94
2022/01/28 11:16:41;;;;;;;18.27;11.00;;;;;;;11.20;67.72;99630.81;5135489;27;20523;-92
2022/01/28 11:19:10;;;;;;;22.67;12.88;;;;;;;11.14;66.78;99622.94;5129422;27;20421;-93
2022/01/28 11:21:49;;;;;;;22.85;11.98;;;;;;;11.18;66.64;99632.63;5136269;27;20084;-93
2022/01/28 11:24:31;;;;;;;22.17;12.07;;;;;;;11.21;67.86;99641.47;5132881;27;20500;-93
2022/01/28 11:27:04;;;;;;;16.92;10.35;;;;;;;10.97;66.42;99612.53;5131046;27;20043;-95
2022/01/28 11:29:30;;;;;;;19.70;11.52;;;;;;;11.05;67.99;99632.81;5134457;27;20054;-92
2022/01/28 11:31:57;;;;;;;16.67;10.10;;;;;;;11.18;66.69;99622.84;5135923;27;20043;-91
2022/01/28 11:34:25;;;;;;;20.52;11.80;;;;;;;11.18;66.65;99622.84;5135968;27;20134;-90
2022/01/28 11:36:54;;;;;;;17.20;11.00;;;;;;;11.22;67.34;99635.22;5135276;27;20035;-94
2022/01/28 11:39:28;;;;;;;18.95;11.13;;;;;;;11.08;67.77;99614.16;5136901;27;20043;-94
2022/01/28 11:42:06;;;;;;;19.98;11.50;;;;;;;11.13;66.85;99615.88;5135206;27;20101;-92
2022/01/28 11:44:54;;;;;;;23.43;11.40;;;;;;;11.12;67.40;99611.44;5136571;27;20039;-93
2022/01/28 11:47:26;;;;;;;22.95;12.73;;;;;;;11.53;65.58;99616.06;5137701;27;20039;-91
2022/01/28 11:49:57;;;;;;;19.67;11.43;;;;;;;11.68;64.20;99609.59;5137055;27;20039;-93
2022/01/28 11:52:27;;;;;;;15.50;7.72;;;;;;;11.55;63.02;99598.28;5136159;27;20444;-93
2022/01/28 11:54:54;;;;;;;14.05;8.50;;;;;;;11.62;63.75;99613.22;5128593;27;20031;-94
2022/01/28 11:57:24;;;;;;;12.85;8.05;;;;;;;11.58;63.21;99606.22;5134099;27;20028;-92
2022/01/28 11:59:50;;;;;;;14.55;8.57;;;;;;;11.43;63.55;99587.84;5137850;27;20128;-92
2022/01/28 12:02:21;;;;;;;14.30;8.60;;;;;;;11.27;64.98;99589.88;5137774;27;20121;-91
2022/01/28 12:04:47;;;;;;;16.20;9.30;;;;;;;11.29;64.99;99569.44;5137472;27;20039;-94
2022/01/28 12:07:18;;;;;;;13.80;6.93;;;;;;;11.05;64.89;99576.03;5139936;27;20080;-93
2022/01/28 12:09:48;;;;;;;14.98;8.55;;;;;;;11.16;65.07;99563.44;5138032;27;20058;-93
2022/01/28 12:12:38;;;;;;;25.65;12.98;;;;;;;11.67;64.66;99578.53;5138362;27;20624;-91
2022/01/28 12:15:10;;;;;;;14.45;9.23;;;;;;;11.83;64.33;99579.13;5121956;27;20043;-93
2022/01/28 12:17:41;;;;;;;15.82;7.90;;;;;;;12.06;63.53;99566.25;5136889;27;20031;-92
2022/01/28 12:20:38;;;;;;;12.88;7.20;;;;;;;12.36;62.45;99574.53;5137110;27;20050;-92
2022/01/28 12:23:25;;;;;;;12.40;6.60;;;;;;;11.96;63.10;99572.66;5132602;27;20450;-93
2022/01/28 12:25:57;;;;;;;13.02;6.78;;;;;;;11.60;63.69;99552.91;5136702;27;20171;-90
2022/01/28 12:28:26;;;;;;;10.02;6.57;;;;;;;11.77;63.48;99528.59;5126910;27;20127;-96
2022/01/28 12:30:59;;;;;;;9.80;6.03;;;;;;;12.02;62.65;99548.56;5137147;27;20068;-91
2022/01/28 12:33:27;;;;;;;9.70;7.10;;;;;;;11.83;63.06;99537.34;5133724;27;20122;-92
2022/01/28 12:35:56;;;;;;;15.98;7.07;;;;;;;12.27;64.52;99534.69;5134789;27;20038;-91
2022/01/28 12:38:26;;;;;;;11.52;6.00;;;;;;;12.41;61.57;99523.75;5136284;27;20480;-91
2022/01/28 12:40:54;;;;;;;9.23;6.35;;;;;;;12.25;62.66;99513.41;5137049;27;20042;-91
2022/01/28 12:43:24;;;;;;;13.20;7.05;;;;;;;12.10;63.24;99535.97;5138692;27;20126;-92
2022/01/28 12:46:01;;;;;;;9.65;6.07;;;;;;;11.90;63.05;99511.47;5135485;27;20109;-92
2022/01/28 12:48:27;;;;;;;9.65;6.18;;;;;;;11.95;63.31;99498.06;5138432;27;20042;-92
2022/01/28 12:50:55;;;;;;;12.10;6.93;;;;;;;12.01;63.31;99503.25;5128784;27;20159;-92
2022/01/28 12:53:35;;;;;;;12.55;6.65;;;;;;;12.45;62.91;99520.97;5135661;27;20091;-94
2022/01/28 12:56:01;;;;;;;;;;;;;;;12.40;62.09;99514.84;5139677;27;20043;-94
2022/01/28 12:58:34;;;;;;;9.63;6.05;;;;;;;12.22;62.33;99515.28;5140259;27;20018;-91
2022/01/28 13:01:08;;;;;;;11.95;5.97;;;;;;;12.28;62.76;99493.81;5138418;27;20043;-93
2022/01/28 13:03:39;;;;;;;12.93;6.45;;;;;;;12.33;62.24;99486.56;5137643;27;20077;-95
2022/01/28 13:06:28;;;;;;;10.93;6.45;;;;;;;12.32;62.63;99493.69;5139837;27;20067;-93
2022/01/28 13:08:55;;;;;;;11.07;5.95;;;;;;;12.39;63.24;99502.44;5138591;27;20448;-95
2022/01/28 13:11:24;;;;;;;9.30;5.90;;;;;;;11.90;62.89;99501.69;5137427;27;20058;-94
2022/01/28 13:13:53;;;;;;;13.55;5.50;;;;;;;11.79;62.78;99478.81;5138853;27;20088;-95
2022/01/28 13:16:29;;;;;;;10.18;5.47;;;;;;;12.05;62.64;99503.16;5137933;27;20037;-92
2022/01/28 13:18:56;;;;;;;9.95;6.40;;;;;;;11.85;63.03;99510.69;5139062;27;20491;-95
2022/01/28 13:21:26;;;;;;;9.77;6.28;;;;;;;11.72;62.32;99494.94;5139198;27;20074;-94
2022/01/28 13:24:07;;;;;;;8.75;5.20;;;;;;;11.92;62.91;99491.00;5139563;27;20552;-93
2022/01/28 13:26:37;;;;;;;11.55;6.75;;;;;;;11.94;62.09;99480.31;5139145;28;20165;-95
2022/01/28 13:29:07;;;;;;;16.42;8.57;;;;;;;11.91;61.77;99468.81;5141587;28;20591;-93
2022/01/28 13:31:33;;;;;;;14.07;8.43;;;;;;;11.84;62.28;99476.94;5139914;28;20047;-92
2022/01/28 13:33:59;;;;;;;10.40;6.40;;;;;;;11.70;62.69;99471.91;5138334;28;20043;-93
2022/01/28 13:36:25;;;;;;;12.65;6.90;;;;;;;11.85;62.26;99489.34;5138199;27;20039;-93